Time;durP1;ratioP1;P1;durP2;ratioP2;P2;SDS_P1;SDS_P2;PMS_P1;PMS_P2;Temp;Humidity;BMP_temperature;BMP_pressure;BME280_temperature;BME280_humidity;BME280_pressure;Samples;Min_cycle;Max_cycle;Signal;HPM_P1;HPM_P2
2022/03/25 00:00:40;;;;;;;19.40;17.60;;;20.60;41.00;;;;;;5003648;28;20217;-63
2022/03/25 00:03:06;;;;;;;19.92;18.00;;;20.60;41.00;;;;;;5003400;28;20129;-62
2022/03/25 00:05:32;;;;;;;20.10;18.10;;;20.60;41.00;;;;;;5004013;28;20100;-63
2022/03/25 00:07:57;;;;;;;20.73;18.58;;;20.60;41.00;;;;;;5003351;28;20643;-63
2022/03/25 00:10:23;;;;;;;19.65;17.75;;;20.50;40.90;;;;;;5001992;28;20038;-65
2022/03/25 00:12:49;;;;;;;19.60;17.60;;;20.50;40.90;;;;;;5002580;28;20092;-65
2022/03/25 00:15:16;;;;;;;20.73;18.55;;;20.60;40.90;;;;;;5002951;28;20081;-65
2022/03/25 00:17:41;;;;;;;20.30;18.27;;;20.50;40.80;;;;;;5003496;28;20056;-63
2022/03/25 00:20:08;;;;;;;19.80;17.90;;;20.50;40.80;;;;;;5004595;28;20046;-64
2022/03/25 00:22:33;;;;;;;20.30;18.30;;;20.50;40.80;;;;;;5003769;28;20049;-62
2022/03/25 00:24:59;;;;;;;20.60;18.60;;;20.50;40.80;;;;;;5003469;28;20046;-64
2022/03/25 00:27:24;;;;;;;19.77;17.88;;;20.50;40.80;;;;;;4993874;28;20091;-63
2022/03/25 00:29:50;;;;;;;19.63;17.73;;;20.50;40.70;;;;;;5003436;28;21004;-64
2022/03/25 00:32:16;;;;;;;19.33;17.52;;;20.50;40.80;;;;;;5004027;28;20511;-63
2022/03/25 00:34:43;;;;;;;21.42;19.35;;;20.50;40.70;;;;;;5003015;28;20355;-64
2022/03/25 00:37:10;;;;;;;22.13;19.77;;;20.50;40.70;;;;;;4996428;28;20049;-64
2022/03/25 00:39:36;;;;;;;21.23;19.13;;;20.50;40.70;;;;;;4992952;28;20489;-63
2022/03/25 00:42:03;;;;;;;20.33;18.20;;;20.50;40.70;;;;;;4992441;28;20046;-65
2022/03/25 00:44:29;;;;;;;20.60;18.63;;;20.50;40.70;;;;;;4970190;28;20223;-63
2022/03/25 00:46:54;;;;;;;19.85;17.95;;;20.50;40.70;;;;;;4995335;28;20133;-63
2022/03/25 00:49:20;;;;;;;20.13;18.23;;;20.50;40.60;;;;;;4993780;28;20505;-63
2022/03/25 00:51:46;;;;;;;21.33;18.95;;;20.40;40.60;;;;;;4990781;28;20042;-63
2022/03/25 00:54:12;;;;;;;20.55;18.55;;;20.50;40.70;;;;;;4977835;28;20049;-64
2022/03/25 00:56:38;;;;;;;20.27;18.27;;;20.50;40.70;;;;;;4989773;28;20034;-64
2022/03/25 00:59:04;;;;;;;21.55;19.45;;;20.40;40.50;;;;;;4993341;28;20049;-63
2022/03/25 01:01:29;;;;;;;21.63;19.35;;;20.40;40.50;;;;;;4979597;28;20053;-63
2022/03/25 01:03:55;;;;;;;20.90;18.70;;;20.40;40.50;;;;;;4996407;28;20129;-63
2022/03/25 01:06:21;;;;;;;20.50;18.58;;;20.40;40.50;;;;;;4995932;28;20561;-63
2022/03/25 01:08:47;;;;;;;22.50;20.15;;;20.40;40.50;;;;;;4993732;28;20468;-63
2022/03/25 01:11:13;;;;;;;21.08;19.08;;;20.40;40.50;;;;;;4977509;28;20064;-63
2022/03/25 01:13:39;;;;;;;20.42;18.42;;;20.40;40.50;;;;;;4994555;28;20049;-63
2022/03/25 01:16:06;;;;;;;22.25;20.05;;;20.40;40.40;;;;;;4993768;28;20045;-63
2022/03/25 01:18:31;;;;;;;21.95;19.73;;;20.40;40.40;;;;;;4977882;28;20856;-63
2022/03/25 01:20:58;;;;;;;21.75;19.63;;;20.40;40.50;;;;;;4995607;28;20068;-63
2022/03/25 01:23:25;;;;;;;21.95;19.75;;;20.40;40.40;;;;;;4995059;28;20034;-63
2022/03/25 01:25:50;;;;;;;22.05;19.85;;;20.40;40.50;;;;;;4994367;28;20034;-64
2022/03/25 01:28:16;;;;;;;21.38;19.27;;;20.40;40.40;;;;;;4995233;28;20092;-63
2022/03/25 01:30:43;;;;;;;22.15;20.05;;;20.40;40.40;;;;;;4994896;28;20052;-63
2022/03/25 01:33:09;;;;;;;22.05;19.75;;;20.40;40.40;;;;;;4994308;28;20046;-64
2022/03/25 01:35:35;;;;;;;21.65;19.55;;;20.40;40.40;;;;;;4995810;28;20528;-65
2022/03/25 01:38:01;;;;;;;21.15;19.10;;;20.40;40.40;;;;;;5003553;28;20054;-63
2022/03/25 01:40:27;;;;;;;21.33;19.23;;;20.30;40.40;;;;;;4986145;28;20129;-63
2022/03/25 01:42:53;;;;;;;23.17;20.90;;;20.30;40.30;;;;;;5006556;28;20046;-63
2022/03/25 01:45:30;;;;;;;23.02;20.60;;;20.30;40.30;;;;;;5006494;28;20053;-63
2022/03/25 01:47:55;;;;;;;22.83;20.50;;;20.30;40.30;;;;;;5004968;28;20091;-64
2022/03/25 01:50:21;;;;;;;21.98;19.77;;;20.30;40.30;;;;;;5004012;28;20050;-63
2022/03/25 01:52:50;;;;;;;21.52;19.40;;;20.30;40.30;;;;;;4972038;28;20068;-63
2022/03/25 01:55:21;;;;;;;21.70;19.50;;;20.30;40.30;;;;;;5005784;28;20474;-63
2022/03/25 01:57:48;;;;;;;22.38;20.00;;;20.30;40.30;;;;;;5005482;28;20034;-63
2022/03/25 02:00:15;;;;;;;22.65;20.42;;;20.30;40.30;;;;;;5004449;28;20042;-63
2022/03/25 02:02:41;;;;;;;22.85;20.65;;;20.30;40.30;;;;;;5005688;28;20453;-63
2022/03/25 02:05:07;;;;;;;22.98;20.77;;;20.30;40.30;;;;;;5005455;28;20103;-63
2022/03/25 02:07:33;;;;;;;21.10;19.00;;;20.30;40.20;;;;;;5004929;28;20155;-65
2022/03/25 02:09:59;;;;;;;22.13;20.05;;;20.30;40.20;;;;;;5005356;28;20121;-62
2022/03/25 02:12:25;;;;;;;22.42;20.23;;;20.30;41.00;;;;;;5005972;28;20041;-65
2022/03/25 02:14:51;;;;;;;21.20;19.10;;;20.30;40.20;;;;;;5004017;28;20042;-63
2022/03/25 02:17:16;;;;;;;23.50;20.63;;;20.30;40.20;;;;;;5005555;28;20042;-63
2022/03/25 02:19:42;;;;;;;21.80;19.70;;;20.20;40.10;;;;;;5005566;28;20045;-63
2022/03/25 02:22:08;;;;;;;23.17;20.88;;;20.30;40.20;;;;;;4986731;28;20510;-63
2022/03/25 02:24:34;;;;;;;22.45;20.25;;;20.20;40.10;;;;;;5006536;28;20041;-64
2022/03/25 02:27:02;;;;;;;21.92;19.83;;;20.20;40.10;;;;;;5005666;28;20630;-63
2022/03/25 02:29:27;;;;;;;22.25;20.10;;;20.20;40.10;;;;;;5003542;28;20546;-62
2022/03/25 02:31:53;;;;;;;22.17;20.08;;;20.20;40.10;;;;;;5004846;28;20108;-63
2022/03/25 02:34:19;;;;;;;21.70;19.50;;;20.20;40.10;;;;;;4987168;28;20046;-63
2022/03/25 02:36:46;;;;;;;22.05;19.85;;;20.20;40.00;;;;;;5004458;28;20227;-63
2022/03/25 02:39:14;;;;;;;22.38;20.13;;;20.20;40.00;;;;;;5003895;28;20075;-64
2022/03/25 02:41:41;;;;;;;21.80;19.60;;;20.20;40.00;;;;;;4987322;28;20049;-62
2022/03/25 02:44:08;;;;;;;21.25;19.08;;;20.20;39.90;;;;;;5004362;28;20042;-63
2022/03/25 02:46:33;;;;;;;21.85;19.70;;;20.20;39.90;;;;;;4986699;28;20546;-65
2022/03/25 02:48:59;;;;;;;22.05;19.85;;;20.20;39.90;;;;;;5004996;28;20042;-63
2022/03/25 02:51:24;;;;;;;21.00;19.00;;;20.20;39.90;;;;;;5003488;28;20057;-62
2022/03/25 02:53:50;;;;;;;22.73;20.55;;;20.20;39.90;;;;;;5003948;28;20111;-65
2022/03/25 02:56:17;;;;;;;22.05;19.75;;;20.20;39.90;;;;;;5003056;28;20085;-64
2022/03/25 02:58:43;;;;;;;21.15;19.17;;;20.20;39.90;;;;;;4984446;28;20065;-63
2022/03/25 03:01:09;;;;;;;22.45;20.23;;;20.20;39.90;;;;;;4999633;28;20737;-64
2022/03/25 03:03:34;;;;;;;20.92;18.83;;;20.20;39.90;;;;;;4998407;28;20555;-63
2022/03/25 03:06:00;;;;;;;22.27;20.08;;;20.20;39.80;;;;;;5001673;28;20331;-64
2022/03/25 03:08:27;;;;;;;21.55;19.35;;;20.20;39.80;;;;;;4984238;28;20771;-63
2022/03/25 03:10:52;;;;;;;22.08;19.90;;;20.20;39.80;;;;;;4985096;28;20049;-63
2022/03/25 03:13:18;;;;;;;21.67;19.50;;;20.20;39.80;;;;;;5002632;28;20521;-63
2022/03/25 03:15:44;;;;;;;21.20;19.15;;;20.10;39.80;;;;;;5002545;28;20065;-63
2022/03/25 03:18:10;;;;;;;21.27;19.20;;;20.20;39.70;;;;;;5003381;28;20038;-64
2022/03/25 03:20:36;;;;;;;20.52;18.33;;;20.10;39.70;;;;;;4999461;28;20072;-63
2022/03/25 03:23:01;;;;;;;21.60;19.52;;;20.10;39.70;;;;;;5001339;28;20401;-64
2022/03/25 03:25:27;;;;;;;20.63;18.73;;;20.10;39.70;;;;;;5000603;28;20026;-63
2022/03/25 03:27:54;;;;;;;21.20;19.13;;;20.10;39.60;;;;;;5002740;28;20038;-63
2022/03/25 03:30:19;;;;;;;21.65;19.48;;;20.10;39.60;;;;;;4983978;28;20049;-64
2022/03/25 03:32:45;;;;;;;21.25;19.13;;;20.10;39.60;;;;;;5002720;28;20561;-63
2022/03/25 03:35:11;;;;;;;20.15;18.20;;;20.10;39.60;;;;;;5002611;28;20049;-63
2022/03/25 03:37:42;;;;;;;21.58;19.48;;;20.10;39.60;;;;;;5011265;28;20096;-63
2022/03/25 03:40:09;;;;;;;20.38;18.38;;;20.10;39.50;;;;;;5000658;28;20092;-65
2022/03/25 03:42:35;;;;;;;20.35;18.35;;;20.00;39.50;;;;;;5002610;28;20042;-63
2022/03/25 03:45:01;;;;;;;20.73;18.80;;;20.10;39.50;;;;;;5002131;28;20100;-63
2022/03/25 03:47:26;;;;;;;20.77;18.75;;;20.00;39.40;;;;;;5000050;28;20777;-63
2022/03/25 03:49:52;;;;;;;20.92;18.77;;;20.10;39.50;;;;;;5015198;28;20052;-63
2022/03/25 03:52:17;;;;;;;20.05;18.10;;;20.00;39.40;;;;;;5002410;28;20048;-63
2022/03/25 03:54:43;;;;;;;20.38;18.38;;;20.10;39.40;;;;;;5002224;28;20375;-63
2022/03/25 03:57:08;;;;;;;21.23;19.23;;;20.10;39.40;;;;;;5003452;28;20057;-63
2022/03/25 03:59:35;;;;;;;20.50;18.50;;;20.00;39.30;;;;;;5016958;28;20454;-63
2022/03/25 04:02:01;;;;;;;20.13;18.20;;;20.00;39.30;;;;;;5003281;28;20520;-63
2022/03/25 04:04:26;;;;;;;19.27;17.48;;;20.00;39.40;;;;;;5001875;28;20045;-63
2022/03/25 04:06:52;;;;;;;20.80;18.80;;;20.00;39.40;;;;;;5002788;28;20038;-64
2022/03/25 04:09:17;;;;;;;20.05;18.15;;;20.00;39.40;;;;;;5002617;28;20461;-63
2022/03/25 04:11:43;;;;;;;20.17;18.08;;;20.00;39.40;;;;;;5003723;28;20042;-63
2022/03/25 04:14:08;;;;;;;19.27;17.40;;;20.00;39.30;;;;;;5003103;28;20261;-65
2022/03/25 04:16:34;;;;;;;19.35;17.55;;;20.00;39.30;;;;;;5001504;28;20034;-63
2022/03/25 04:18:59;;;;;;;18.77;16.98;;;20.00;39.20;;;;;;5000909;28;20034;-63
2022/03/25 04:21:25;;;;;;;19.30;17.50;;;20.00;39.20;;;;;;5000959;28;20041;-63
2022/03/25 04:23:51;;;;;;;18.60;16.80;;;20.00;39.10;;;;;;5001873;28;20053;-65
2022/03/25 04:26:16;;;;;;;19.30;17.38;;;20.00;39.10;;;;;;5002740;28;20470;-64
2022/03/25 04:28:42;;;;;;;18.88;17.08;;;20.00;39.10;;;;;;5003415;28;20069;-65
2022/03/25 04:31:07;;;;;;;18.38;16.58;;;20.00;39.10;;;;;;5002822;28;20552;-63
2022/03/25 04:33:34;;;;;;;17.85;16.17;;;20.00;39.00;;;;;;5005763;28;20038;-63
2022/03/25 04:36:01;;;;;;;17.92;16.23;;;20.00;39.00;;;;;;5005255;28;20034;-63
2022/03/25 04:38:28;;;;;;;17.55;15.95;;;19.90;38.90;;;;;;5007367;28;20429;-63
2022/03/25 04:40:54;;;;;;;17.20;15.60;;;20.00;39.00;;;;;;5004314;28;20481;-63
2022/03/25 04:43:19;;;;;;;16.58;15.02;;;19.90;38.90;;;;;;4987546;28;20042;-62
2022/03/25 04:45:45;;;;;;;15.88;14.38;;;19.90;38.90;;;;;;5005341;28;20046;-63
2022/03/25 04:48:11;;;;;;;16.00;14.60;;;19.90;38.90;;;;;;4987139;28;20073;-63
2022/03/25 04:50:37;;;;;;;16.13;14.73;;;19.90;39.60;;;;;;5004265;28;20045;-63
2022/03/25 04:53:04;;;;;;;15.55;14.15;;;19.90;38.90;;;;;;5005031;28;20139;-63
2022/03/25 04:55:30;;;;;;;14.98;13.57;;;19.90;38.80;;;;;;4987374;28;20029;-63
2022/03/25 04:57:56;;;;;;;16.55;14.95;;;19.90;38.80;;;;;;5005067;28;20041;-64
2022/03/25 05:00:22;;;;;;;14.80;13.40;;;19.90;38.70;;;;;;5004412;28;20045;-63
2022/03/25 05:02:48;;;;;;;15.68;14.20;;;19.90;38.70;;;;;;5002311;28;20038;-64
2022/03/25 05:05:15;;;;;;;15.07;13.68;;;19.90;38.70;;;;;;5003249;28;20445;-63
2022/03/25 05:07:42;;;;;;;14.18;12.88;;;19.90;38.70;;;;;;5005199;28;20053;-64
2022/03/25 05:10:08;;;;;;;14.60;13.30;;;19.90;38.70;;;;;;4985208;28;20158;-63
2022/03/25 05:12:34;;;;;;;14.95;13.60;;;19.90;38.70;;;;;;5005264;28;20251;-64
2022/03/25 05:15:00;;;;;;;14.02;12.80;;;19.90;38.60;;;;;;5005693;28;20347;-62
2022/03/25 05:17:26;;;;;;;14.40;13.10;;;19.90;38.60;;;;;;4987538;28;20482;-61
2022/03/25 05:19:51;;;;;;;16.55;14.73;;;19.90;38.60;;;;;;5002678;28;20504;-61
2022/03/25 05:22:17;;;;;;;14.48;13.18;;;19.90;38.70;;;;;;5003990;28;20069;-62
2022/03/25 05:24:42;;;;;;;14.63;13.30;;;19.80;38.70;;;;;;5005962;28;20286;-65
2022/03/25 05:27:08;;;;;;;14.15;12.65;;;19.80;38.70;;;;;;4986445;28;20049;-65
2022/03/25 05:29:33;;;;;;;14.93;13.52;;;19.80;38.70;;;;;;4986407;28;20077;-65
2022/03/25 05:31:59;;;;;;;15.05;13.65;;;19.80;38.80;;;;;;5003726;28;20042;-66
2022/03/25 05:34:25;;;;;;;15.23;13.82;;;19.80;38.80;;;;;;5005304;28;20081;-64
2022/03/25 05:36:50;;;;;;;15.27;13.90;;;19.80;38.80;;;;;;5003114;28;20532;-65
2022/03/25 05:39:16;;;;;;;15.18;13.77;;;19.80;38.80;;;;;;5004831;28;20033;-64
2022/03/25 05:41:42;;;;;;;15.02;13.63;;;19.80;38.80;;;;;;5003168;28;20038;-66
2022/03/25 05:44:08;;;;;;;15.13;13.73;;;19.80;38.90;;;;;;5004836;28;20041;-65
2022/03/25 05:46:38;;;;;;;14.50;13.15;;;19.80;38.90;;;;;;4998369;28;20045;-65
2022/03/25 05:49:05;;;;;;;15.75;14.25;;;19.70;38.90;;;;;;5003632;28;20100;-67
2022/03/25 05:51:31;;;;;;;15.63;14.13;;;19.70;38.90;;;;;;4984088;28;20053;-68
2022/03/25 05:53:57;;;;;;;15.55;13.48;;;19.70;38.90;;;;;;5001803;28;20037;-64
2022/03/25 05:56:23;;;;;;;15.88;14.27;;;19.80;38.90;;;;;;5002874;28;20105;-62
2022/03/25 05:58:48;;;;;;;15.10;13.70;;;19.80;38.90;;;;;;5003154;28;20048;-62
2022/03/25 06:01:14;;;;;;;14.77;13.48;;;19.80;38.90;;;;;;5001273;28;20104;-65
2022/03/25 06:03:40;;;;;;;15.13;13.82;;;19.80;38.80;;;;;;5001557;28;20250;-62
2022/03/25 06:06:06;;;;;;;14.90;13.35;;;19.80;38.80;;;;;;5001559;28;20042;-66
2022/03/25 06:08:32;;;;;;;14.82;13.43;;;19.80;38.80;;;;;;5002362;28;20100;-65
2022/03/25 06:10:59;;;;;;;14.77;13.27;;;19.80;38.80;;;;;;5002909;28;20034;-64
2022/03/25 06:13:26;;;;;;;14.88;13.48;;;19.80;38.70;;;;;;4999039;28;20687;-65
2022/03/25 06:15:52;;;;;;;15.35;13.88;;;19.80;38.80;;;;;;4985124;28;20069;-65
2022/03/25 06:18:17;;;;;;;15.35;13.93;;;19.80;38.80;;;;;;5000465;28;20493;-65
2022/03/25 06:20:43;;;;;;;14.90;13.40;;;19.80;38.90;;;;;;4985422;28;20049;-65
2022/03/25 06:23:08;;;;;;;14.98;13.57;;;19.80;38.90;;;;;;4984018;28;20057;-64
2022/03/25 06:25:34;;;;;;;14.18;12.88;;;19.80;38.80;;;;;;4985460;28;20052;-64
2022/03/25 06:28:02;;;;;;;14.77;13.32;;;19.80;38.90;;;;;;4982846;28;20038;-64
2022/03/25 06:30:34;;;;;;;13.50;12.30;;;19.80;38.80;;;;;;4983615;28;20065;-65
2022/03/25 06:33:01;;;;;;;14.32;12.95;;;19.80;38.80;;;;;;5000060;28;20056;-65
2022/03/25 06:35:26;;;;;;;13.70;12.38;;;19.80;38.90;;;;;;4984921;28;20124;-64
2022/03/25 06:37:52;;;;;;;12.65;11.45;;;19.80;38.90;;;;;;5008174;28;20831;-64
2022/03/25 06:40:19;;;;;;;13.02;11.77;;;19.80;38.90;;;;;;5001014;28;20515;-64
2022/03/25 06:42:45;;;;;;;13.10;11.90;;;19.90;38.90;;;;;;5016133;28;20045;-64
2022/03/25 06:45:15;;;;;;;13.68;12.38;;;19.90;38.90;;;;;;4994116;28;20042;-64
2022/03/25 06:47:41;;;;;;;12.52;11.35;;;19.90;38.90;;;;;;5014132;28;20033;-65
2022/03/25 06:50:08;;;;;;;13.13;11.90;;;19.90;38.90;;;;;;5000957;28;20065;-64
2022/03/25 06:52:34;;;;;;;14.07;12.57;;;19.90;38.80;;;;;;5014254;28;20446;-64
2022/03/25 06:55:00;;;;;;;12.88;11.68;;;19.90;38.80;;;;;;5017710;28;20049;-64
2022/03/25 06:57:26;;;;;;;13.13;11.93;;;20.00;38.80;;;;;;4999483;28;20899;-65
2022/03/25 06:59:52;;;;;;;13.05;11.85;;;20.00;38.80;;;;;;4998328;28;20370;-65
2022/03/25 07:02:18;;;;;;;11.90;10.80;;;20.00;38.90;;;;;;5001777;28;20042;-65
2022/03/25 07:04:43;;;;;;;13.07;11.88;;;20.00;38.90;;;;;;5001671;28;20061;-65
2022/03/25 07:07:10;;;;;;;12.25;11.13;;;20.00;38.90;;;;;;5012771;28;20108;-65
2022/03/25 07:09:36;;;;;;;12.48;11.30;;;20.00;39.00;;;;;;4998507;28;20121;-65
2022/03/25 07:12:04;;;;;;;12.85;11.63;;;20.00;39.00;;;;;;5001847;28;20041;-65
2022/03/25 07:14:30;;;;;;;12.77;11.45;;;20.00;39.00;;;;;;4993156;28;20042;-64
2022/03/25 07:16:55;;;;;;;12.60;11.43;;;20.00;39.00;;;;;;5002551;28;20125;-64
2022/03/25 07:19:25;;;;;;;11.55;10.55;;;20.10;39.10;;;;;;4999567;28;20069;-65
2022/03/25 07:21:54;;;;;;;11.15;10.15;;;20.00;39.00;;;;;;5002577;28;20611;-64
2022/03/25 07:24:21;;;;;;;12.40;11.20;;;20.10;39.10;;;;;;4996320;28;20038;-65
2022/03/25 07:26:47;;;;;;;12.48;11.18;;;20.10;39.20;;;;;;4984164;28;20042;-64
2022/03/25 07:29:12;;;;;;;12.73;10.68;;;20.10;39.30;;;;;;4997564;28;20601;-64
2022/03/25 07:31:38;;;;;;;17.02;10.73;;;20.10;39.30;;;;;;5001202;28;20116;-64
2022/03/25 07:34:04;;;;;;;14.32;11.10;;;20.20;39.40;;;;;;5017483;28;20159;-65
2022/03/25 07:36:30;;;;;;;16.95;11.57;;;20.20;39.50;;;;;;5000606;28;20340;-66
2022/03/25 07:38:55;;;;;;;17.60;11.10;;;20.20;39.40;;;;;;4989315;28;20049;-67
2022/03/25 07:41:21;;;;;;;13.32;11.13;;;20.20;39.40;;;;;;4987359;28;20030;-66
2022/03/25 07:43:47;;;;;;;15.57;11.05;;;20.20;39.40;;;;;;4990505;28;20145;-66
2022/03/25 07:46:13;;;;;;;13.05;9.80;;;20.20;39.40;;;;;;4966928;28;20039;-66
2022/03/25 07:48:39;;;;;;;13.80;10.48;;;20.30;39.60;;;;;;4984057;28;20484;-67
2022/03/25 07:51:04;;;;;;;13.20;10.30;;;20.30;39.60;;;;;;4978595;28;20054;-66
2022/03/25 07:53:32;;;;;;;14.10;10.18;;;20.30;39.60;;;;;;4956692;28;20374;-66
2022/03/25 07:55:58;;;;;;;12.02;9.23;;;20.30;39.60;;;;;;4973390;28;20041;-66
2022/03/25 07:58:24;;;;;;;12.77;8.65;;;20.30;39.70;;;;;;4964290;28;20051;-66
2022/03/25 08:00:50;;;;;;;16.95;9.40;;;20.30;39.70;;;;;;4967515;28;20410;-67
2022/03/25 08:03:17;;;;;;;11.57;9.40;;;20.30;39.80;;;;;;4967473;28;20061;-64
2022/03/25 08:05:43;;;;;;;11.52;9.48;;;20.40;40.70;;;;;;4989655;28;20050;-64
2022/03/25 08:08:09;;;;;;;15.25;9.25;;;20.40;40.10;;;;;;4991757;28;20037;-66
2022/03/25 08:10:36;;;;;;;9.95;8.95;;;20.40;40.10;;;;;;4975587;28;20496;-63
2022/03/25 08:13:02;;;;;;;10.88;8.70;;;20.40;40.10;;;;;;4977213;28;20089;-64
2022/03/25 08:15:34;;;;;;;12.77;9.65;;;20.40;40.10;;;;;;4991699;28;20524;-63
2022/03/25 08:18:03;;;;;;;12.93;8.13;;;20.40;40.10;;;;;;4995075;28;20042;-65
2022/03/25 08:20:57;;;;;;;9.73;8.60;;;20.40;40.10;;;;;;4992240;28;20073;-63
2022/03/25 08:28:59;;;;;;;11.80;8.05;;;20.50;40.40;;;;;;4993878;28;20148;-64
2022/03/25 08:31:24;;;;;;;9.25;7.60;;;20.50;40.50;;;;;;4989581;28;20490;-62
2022/03/25 08:33:50;;;;;;;10.65;7.57;;;20.50;40.50;;;;;;4994235;28;20034;-63
2022/03/25 08:36:17;;;;;;;12.88;8.15;;;20.50;40.60;;;;;;4992275;28;20034;-63
2022/03/25 08:38:43;;;;;;;9.27;7.88;;;20.50;40.60;;;;;;4998779;28;20046;-62
2022/03/25 08:41:09;;;;;;;13.63;8.32;;;20.60;41.00;;;;;;5003577;28;20045;-65
2022/03/25 08:43:35;;;;;;;11.05;8.13;;;20.60;41.40;;;;;;5003724;28;20365;-65
2022/03/25 08:46:01;;;;;;;9.73;7.53;;;20.60;41.40;;;;;;4996274;28;20678;-64
2022/03/25 08:48:27;;;;;;;10.85;7.40;;;20.60;41.90;;;;;;4992565;28;20108;-64
2022/03/25 08:50:53;;;;;;;10.00;6.93;;;20.70;42.10;;;;;;4998739;28;20935;-65
2022/03/25 08:53:19;;;;;;;13.13;7.85;;;20.70;42.00;;;;;;5001050;28;20553;-64
2022/03/25 08:55:45;;;;;;;8.23;7.35;;;20.80;42.10;;;;;;5016577;28;20050;-65
2022/03/25 08:58:11;;;;;;;10.27;7.18;;;20.80;42.00;;;;;;5003660;28;20416;-65
2022/03/25 09:00:37;;;;;;;9.52;7.00;;;20.80;42.00;;;;;;4999837;28;20646;-65
2022/03/25 09:03:03;;;;;;;8.73;6.93;;;20.80;42.00;;;;;;5018817;28;20134;-64
2022/03/25 09:05:28;;;;;;;6.75;6.05;;;20.90;42.00;;;;;;5002766;28;20492;-65
2022/03/25 09:07:54;;;;;;;9.93;7.25;;;20.90;42.00;;;;;;5004332;28;20532;-65
2022/03/25 09:10:19;;;;;;;11.00;6.70;;;20.90;42.00;;;;;;5002413;28;20925;-65
2022/03/25 09:12:46;;;;;;;12.68;6.93;;;20.90;42.00;;;;;;5003488;28;20038;-65
2022/03/25 09:15:13;;;;;;;7.85;5.97;;;21.00;42.00;;;;;;5002028;28;20488;-65
2022/03/25 09:17:40;;;;;;;9.88;6.70;;;21.00;42.00;;;;;;5002453;28;20270;-65
2022/03/25 09:20:07;;;;;;;11.07;6.60;;;21.00;42.00;;;;;;5003903;28;20049;-66
2022/03/25 09:22:34;;;;;;;7.68;6.50;;;21.00;41.90;;;;;;5001921;28;20057;-68
2022/03/25 09:25:01;;;;;;;9.05;7.20;;;21.10;42.00;;;;;;5017449;28;20042;-66
2022/03/25 09:27:26;;;;;;;10.07;6.85;;;21.10;42.00;;;;;;4995354;28;20092;-66
2022/03/25 09:29:52;;;;;;;9.05;7.10;;;21.10;42.70;;;;;;5002227;28;20070;-66
2022/03/25 09:32:17;;;;;;;9.85;6.97;;;21.10;41.90;;;;;;5002369;28;20042;-66
2022/03/25 09:37:27;;;;;;;8.82;6.68;;;21.10;41.80;;;;;;5002601;28;20057;-67
2022/03/25 09:39:53;;;;;;;8.30;6.75;;;21.10;41.80;;;;;;5001807;28;20100;-66
2022/03/25 09:42:19;;;;;;;8.57;6.88;;;21.10;41.80;;;;;;4999891;28;20038;-67
2022/03/25 09:44:46;;;;;;;8.73;6.70;;;21.10;41.80;;;;;;4977090;28;20516;-66
2022/03/25 09:47:14;;;;;;;9.07;6.85;;;21.20;41.90;;;;;;4977861;28;20524;-65
2022/03/25 09:49:40;;;;;;;8.40;6.82;;;21.20;42.00;;;;;;4984604;28;20056;-65
2022/03/25 09:52:07;;;;;;;7.75;6.93;;;21.20;41.90;;;;;;5002432;28;20081;-65
2022/03/25 09:54:34;;;;;;;8.35;6.38;;;21.20;42.10;;;;;;5002996;28;21056;-65
2022/03/25 09:57:00;;;;;;;8.48;6.78;;;21.20;41.80;;;;;;5002396;28;21054;-64
2022/03/25 09:59:26;;;;;;;7.85;6.90;;;21.20;41.80;;;;;;5002169;28;20045;-64
2022/03/25 10:01:52;;;;;;;8.73;6.05;;;21.20;41.80;;;;;;5001660;28;20508;-68
2022/03/25 10:04:36;;;;;;;7.88;6.95;;;21.20;41.70;;;;;;5003585;28;20409;-65
2022/03/25 10:07:13;;;;;;;7.78;6.63;;;21.20;41.80;;;;;;5002418;28;20053;-65
2022/03/25 10:09:39;;;;;;;9.45;6.68;;;21.20;41.70;;;;;;5003483;28;20053;-65
2022/03/25 10:12:22;;;;;;;7.43;6.68;;;21.20;41.70;;;;;;4984213;28;20577;-65
2022/03/25 10:14:49;;;;;;;7.78;6.95;;;21.20;41.70;;;;;;5002263;28;20109;-65
2022/03/25 10:17:15;;;;;;;6.72;6.10;;;21.10;41.70;;;;;;5001772;28;20042;-65
2022/03/25 10:19:50;;;;;;;9.68;7.35;;;21.10;41.60;;;;;;5001821;28;20046;-65
2022/03/25 10:22:17;;;;;;;7.78;6.97;;;21.20;41.70;;;;;;4982286;28;20085;-66
2022/03/25 10:24:48;;;;;;;7.72;7.03;;;21.10;41.70;;;;;;5002964;28;20048;-65
2022/03/25 10:27:18;;;;;;;6.97;6.28;;;21.20;41.70;;;;;;4979850;28;20054;-66
2022/03/25 10:29:45;;;;;;;;;;;21.10;41.60;;;;;;4984483;28;20056;-65
2022/03/25 10:32:13;;;;;;;7.38;6.68;;;21.10;41.60;;;;;;4984020;28;19979;-65
2022/03/25 10:34:41;;;;;;;7.93;6.32;;;21.10;41.70;;;;;;5002310;28;20261;-66
2022/03/25 10:37:10;;;;;;;7.18;6.47;;;21.10;41.60;;;;;;4982139;28;20080;-66
2022/03/25 10:39:35;;;;;;;7.38;6.55;;;21.10;41.60;;;;;;5001637;28;20042;-66
2022/03/25 10:42:04;;;;;;;6.13;5.63;;;21.10;41.60;;;;;;4982706;28;20803;-66
2022/03/25 10:44:41;;;;;;;8.65;6.22;;;21.20;41.80;;;;;;5001718;28;20099;-65
2022/03/25 10:47:16;;;;;;;7.15;6.03;;;21.20;41.70;;;;;;4983361;28;20087;-66
2022/03/25 10:49:46;;;;;;;7.40;6.22;;;21.20;41.80;;;;;;5000825;28;20111;-66
2022/03/25 10:52:26;;;;;;;7.88;5.35;;;21.20;41.70;;;;;;4997567;28;20128;-66
2022/03/25 10:55:17;;;;;;;6.60;5.40;;;21.20;41.80;;;;;;4978682;28;20042;-66
2022/03/25 10:57:46;;;;;;;5.75;5.10;;;21.20;41.80;;;;;;4998970;28;20390;-66
2022/03/25 11:00:13;;;;;;;6.15;5.55;;;21.20;41.80;;;;;;4999894;28;20647;-66
2022/03/25 11:02:39;;;;;;;6.97;5.68;;;21.20;41.80;;;;;;4998502;28;20471;-66
2022/03/25 11:05:05;;;;;;;6.18;5.68;;;21.20;41.80;;;;;;4999929;28;20041;-66
2022/03/25 11:07:31;;;;;;;6.07;5.47;;;21.20;41.80;;;;;;4982830;28;20108;-66
2022/03/25 11:10:00;;;;;;;6.55;5.85;;;21.20;41.80;;;;;;4983519;28;20038;-65
2022/03/25 11:12:26;;;;;;;6.53;5.72;;;21.20;41.80;;;;;;5001440;28;20087;-65
2022/03/25 11:14:51;;;;;;;5.90;5.32;;;21.20;41.80;;;;;;4982517;28;20164;-65
2022/03/25 11:17:19;;;;;;;7.82;5.80;;;21.30;41.90;;;;;;5000912;28;20461;-65
2022/03/25 11:19:45;;;;;;;7.00;5.70;;;21.30;41.90;;;;;;4989965;28;20104;-66
2022/03/25 11:22:12;;;;;;;7.80;6.30;;;21.20;42.00;;;;;;5000833;28;20042;-66
2022/03/25 11:24:43;;;;;;;7.10;5.35;;;21.30;42.10;;;;;;4982437;28;20486;-66
2022/03/25 11:27:31;;;;;;;7.63;5.47;;;21.30;42.20;;;;;;4998414;28;20048;-66
2022/03/25 11:30:01;;;;;;;6.10;5.47;;;21.30;42.30;;;;;;4983592;28;20034;-66
2022/03/25 11:32:27;;;;;;;10.15;6.47;;;21.20;42.40;;;;;;4984106;28;20054;-65
2022/03/25 11:34:56;;;;;;;7.95;5.50;;;21.30;42.50;;;;;;4982143;28;20056;-65
2022/03/25 11:37:25;;;;;;;7.97;5.78;;;21.30;42.60;;;;;;5003241;28;20149;-65
2022/03/25 11:40:11;;;;;;;7.53;5.18;;;21.30;42.70;;;;;;4997071;28;20046;-64
2022/03/25 11:43:22;;;;;;;6.82;5.25;;;21.30;42.90;;;;;;4982862;28;20050;-66
2022/03/25 11:46:00;;;;;;;7.55;5.20;;;21.30;42.90;;;;;;5014979;28;20044;-65
2022/03/25 11:48:25;;;;;;;7.47;6.30;;;21.30;43.00;;;;;;4998379;28;20042;-64
2022/03/25 11:50:54;;;;;;;5.72;5.22;;;21.30;43.80;;;;;;4999116;28;20041;-65
2022/03/25 11:53:22;;;;;;;8.98;5.82;;;21.30;43.10;;;;;;4976414;28;20038;-65
2022/03/25 11:56:06;;;;;;;10.60;5.95;;;21.30;43.20;;;;;;4998227;28;20061;-65
2022/03/25 11:58:35;;;;;;;7.20;5.57;;;21.30;43.10;;;;;;5015012;28;20053;-65
2022/03/25 12:01:04;;;;;;;5.82;5.22;;;21.30;43.10;;;;;;5000027;28;20026;-65
2022/03/25 12:03:59;;;;;;;7.80;5.30;;;21.30;43.10;;;;;;4996514;28;20042;-65
2022/03/25 12:06:30;;;;;;;9.48;8.23;;;21.40;43.10;;;;;;4986950;28;20050;-66
2022/03/25 12:08:59;;;;;;;13.93;7.53;;;21.40;42.70;;;;;;5014161;28;20072;-66
2022/03/25 12:11:58;;;;;;;11.85;7.97;;;21.30;42.60;;;;;;4998958;28;20054;-66
2022/03/25 12:14:31;;;;;;;8.32;7.18;;;21.40;42.70;;;;;;5014252;28;20386;-66
2022/03/25 12:17:11;;;;;;;16.60;7.90;;;21.40;42.60;;;;;;4999742;28;20137;-66
2022/03/25 12:19:48;;;;;;;10.30;7.22;;;21.40;42.60;;;;;;4999475;28;20516;-66
2022/03/25 12:22:20;;;;;;;11.77;7.43;;;21.40;42.60;;;;;;4990872;28;20073;-66
2022/03/25 12:24:47;;;;;;;12.85;7.20;;;21.40;42.60;;;;;;4999013;28;20037;-64
2022/03/25 12:27:12;;;;;;;13.18;6.93;;;21.40;42.70;;;;;;4996842;28;20054;-67
2022/03/25 12:29:40;;;;;;;7.88;6.63;;;21.40;42.70;;;;;;4998031;28;20490;-66
2022/03/25 12:32:08;;;;;;;11.35;7.43;;;21.30;42.70;;;;;;5010860;28;20052;-66
2022/03/25 12:34:55;;;;;;;8.55;6.28;;;21.40;42.80;;;;;;5000407;28;20543;-66
2022/03/25 12:37:28;;;;;;;13.02;6.82;;;21.40;42.90;;;;;;4999541;28;20049;-64
2022/03/25 12:39:55;;;;;;;12.95;6.30;;;21.40;43.00;;;;;;4999733;28;20049;-66
2022/03/25 12:42:20;;;;;;;10.82;6.60;;;21.40;43.00;;;;;;4998722;28;20581;-66